createdAt,value
2022-09-23T00:01:11.259Z,4.63
2022-09-23T00:03:41.450Z,4.45
2022-09-23T00:06:13.729Z,5.38
2022-09-23T00:08:41.329Z,3.58
2022-09-23T00:11:20.804Z,6.80
2022-09-23T00:13:49.613Z,5.35
2022-09-23T00:16:25.451Z,4.18
2022-09-23T00:18:52.432Z,3.80
2022-09-23T00:21:20.529Z,4.43
2022-09-23T00:23:47.921Z,4.15
2022-09-23T00:26:17.023Z,5.85
2022-09-23T00:28:43.574Z,5.32
2022-09-23T00:31:12.849Z,4.57
2022-09-23T00:33:40.666Z,4.15
2022-09-23T00:36:11.125Z,3.65
2022-09-23T00:38:38.371Z,7.25
2022-09-23T00:41:06.396Z,4.03
2022-09-23T00:43:58.314Z,5.25
2022-09-23T00:46:38.933Z,3.50
2022-09-23T00:49:30.080Z,3.53
2022-09-23T00:51:58.049Z,4.70
2022-09-23T00:54:27.525Z,3.60
2022-09-23T00:56:55.477Z,3.83
2022-09-23T00:59:24.420Z,3.95
2022-09-23T01:01:54.916Z,3.58
2022-09-23T01:04:26.065Z,5.13
2022-09-23T01:06:52.811Z,3.90
2022-09-23T01:09:20.603Z,3.88
2022-09-23T01:12:19.569Z,3.58
2022-09-23T01:15:00.479Z,4.07
2022-09-23T01:17:32.791Z,4.18
2022-09-23T01:20:30.626Z,3.65
2022-09-23T01:23:40.574Z,3.28
2022-09-23T01:26:25.911Z,3.45
2022-09-23T01:29:15.179Z,3.22
2022-09-23T01:31:56.730Z,3.03
2022-09-23T01:34:32.749Z,4.93
2022-09-23T01:37:11.706Z,3.97
2022-09-23T01:39:47.962Z,4.82
2022-09-23T01:42:39.469Z,4.35
2022-09-23T01:45:09.714Z,3.33
2022-09-23T01:47:43.324Z,3.58
2022-09-23T01:50:36.542Z,4.07
2022-09-23T01:53:10.892Z,3.65
2022-09-23T01:55:42.927Z,4.53
2022-09-23T01:58:21.454Z,3.13
2022-09-23T02:01:00.053Z,3.33
2022-09-23T02:03:51.938Z,3.40
2022-09-23T02:06:26.012Z,3.80
2022-09-23T02:09:07.133Z,4.75
2022-09-23T02:11:36.416Z,5.30
2022-09-23T02:14:15.533Z,3.97
2022-09-23T02:16:50.466Z,3.28
2022-09-23T02:19:50.750Z,3.03
2022-09-23T02:22:26.349Z,5.03
2022-09-23T02:24:54.760Z,3.80
2022-09-23T02:27:33.110Z,3.30
2022-09-23T02:30:02.659Z,3.25
2022-09-23T02:32:42.101Z,3.95
2022-09-23T02:35:26.882Z,4.65
2022-09-23T02:38:19.735Z,3.38
2022-09-23T02:41:10.459Z,3.10
2022-09-23T02:44:07.641Z,3.03
2022-09-23T02:46:35.408Z,2.53
2022-09-23T02:49:29.524Z,3.83
2022-09-23T02:51:59.884Z,3.95
2022-09-23T02:54:29.245Z,2.97
2022-09-23T02:56:57.378Z,3.00
2022-09-23T02:59:24.470Z,3.22
2022-09-23T03:02:00.049Z,6.03
2022-09-23T03:04:32.350Z,3.67
2022-09-23T03:07:20.047Z,2.67
2022-09-23T03:10:07.278Z,3.40
2022-09-23T03:13:04.849Z,3.13
2022-09-23T03:15:57.368Z,3.10
2022-09-23T03:18:37.045Z,3.20
2022-09-23T03:21:17.254Z,3.03
2022-09-23T03:23:46.487Z,5.50
2022-09-23T03:26:20.869Z,2.95
2022-09-23T03:28:47.705Z,3.40
2022-09-23T03:31:15.537Z,3.00
2022-09-23T03:33:47.244Z,3.00
2022-09-23T03:36:37.570Z,3.15
2022-09-23T03:39:12.906Z,3.28
2022-09-23T03:41:51.716Z,7.35
2022-09-23T03:44:19.692Z,3.42
2022-09-23T03:46:49.859Z,3.03
2022-09-23T03:49:21.280Z,3.80
2022-09-23T03:51:47.841Z,2.88
2022-09-23T03:54:14.457Z,2.95
2022-09-23T03:56:40.963Z,6.22
2022-09-23T03:59:07.621Z,3.03
2022-09-23T04:01:34.190Z,3.00
2022-09-23T04:04:00.979Z,4.15
2022-09-23T04:06:27.447Z,3.20
2022-09-23T04:08:53.998Z,3.33
2022-09-23T04:11:20.660Z,4.32
2022-09-23T04:13:47.162Z,2.78
2022-09-23T04:16:13.722Z,3.25
2022-09-23T04:18:40.243Z,3.47
2022-09-23T04:21:06.759Z,4.50
2022-09-23T04:23:33.316Z,3.20
2022-09-23T04:25:59.778Z,3.25
2022-09-23T04:28:26.482Z,3.40
2022-09-23T04:30:54.027Z,3.10
2022-09-23T04:33:20.581Z,3.22
2022-09-23T04:35:51.767Z,4.13
2022-09-23T04:38:18.868Z,3.40
2022-09-23T04:40:45.490Z,3.58
2022-09-23T04:43:15.776Z,3.63
2022-09-23T04:45:43.802Z,4.93
2022-09-23T04:48:11.618Z,3.75
2022-09-23T04:50:38.525Z,2.90
2022-09-23T04:53:05.582Z,4.03
2022-09-23T04:55:32.274Z,4.63
2022-09-23T04:57:58.862Z,3.60
2022-09-23T05:00:27.018Z,3.13
2022-09-23T05:02:53.631Z,3.25
2022-09-23T05:05:21.177Z,3.17
2022-09-23T05:07:48.514Z,3.45
2022-09-23T05:10:16.015Z,4.82
2022-09-23T05:12:42.801Z,3.83
2022-09-23T05:15:09.749Z,5.32
2022-09-23T05:17:37.394Z,6.28
2022-09-23T05:20:04.999Z,5.32
2022-09-23T05:22:31.829Z,4.25
2022-09-23T05:25:00.306Z,5.50
2022-09-23T05:27:27.256Z,5.28
2022-09-23T05:29:53.825Z,4.50
2022-09-23T05:32:21.164Z,3.67
2022-09-23T05:34:47.850Z,3.85
2022-09-23T05:37:14.347Z,4.10
2022-09-23T05:39:41.150Z,3.80
2022-09-23T05:42:08.032Z,3.83
2022-09-23T05:44:34.498Z,4.93
2022-09-23T05:47:01.136Z,3.58
2022-09-23T05:49:42.859Z,5.80
2022-09-23T05:52:14.248Z,3.10
2022-09-23T05:54:41.256Z,3.33
2022-09-23T05:57:08.037Z,4.15
2022-09-23T05:59:34.626Z,4.05
2022-09-23T06:02:01.652Z,3.80
2022-09-23T06:04:28.276Z,3.55
2022-09-23T06:06:59.214Z,3.67
2022-09-23T06:09:29.291Z,5.30
2022-09-23T06:11:57.433Z,3.72
2022-09-23T06:14:23.976Z,3.72
2022-09-23T06:16:50.636Z,4.15
2022-09-23T06:19:17.378Z,4.85
2022-09-23T06:21:43.947Z,5.75
2022-09-23T06:24:14.152Z,3.38
2022-09-23T06:26:43.445Z,4.45
2022-09-23T06:29:11.985Z,4.35
2022-09-23T06:31:42.171Z,3.70
2022-09-23T06:34:14.158Z,5.95
2022-09-23T06:36:44.945Z,6.32
2022-09-23T06:39:13.585Z,4.40
2022-09-23T06:41:40.266Z,4.18
2022-09-23T06:44:06.951Z,5.53
2022-09-23T06:46:33.747Z,3.53
2022-09-23T06:49:02.135Z,3.40
2022-09-23T06:51:28.725Z,8.68
2022-09-23T06:53:56.026Z,4.85
2022-09-23T06:56:23.684Z,5.25
2022-09-23T06:58:52.522Z,5.13
2022-09-23T07:01:19.781Z,3.85
2022-09-23T07:03:48.307Z,6.38
2022-09-23T07:06:16.095Z,3.80
2022-09-23T07:08:45.212Z,4.95
2022-09-23T07:11:13.299Z,4.00
2022-09-23T07:13:41.386Z,8.23
2022-09-23T07:16:09.961Z,5.63
2022-09-23T07:18:37.631Z,8.60
2022-09-23T07:21:07.154Z,7.38
2022-09-23T07:23:34.018Z,5.18
2022-09-23T07:26:01.295Z,5.55
2022-09-23T07:28:29.094Z,5.20
2022-09-23T07:31:00.438Z,5.78
2022-09-23T07:33:33.068Z,5.38
2022-09-23T07:36:05.119Z,6.05
2022-09-23T07:38:32.022Z,4.50
2022-09-23T07:41:08.137Z,3.40
2022-09-23T07:43:35.145Z,5.32
2022-09-23T07:46:05.858Z,4.93
2022-09-23T07:48:34.670Z,10.45
2022-09-23T07:51:36.607Z,4.53
2022-09-23T07:54:07.413Z,6.35
2022-09-23T07:56:35.930Z,3.83
2022-09-23T07:59:05.533Z,5.43
2022-09-23T08:01:41.487Z,5.78
2022-09-23T08:04:21.067Z,7.47
2022-09-23T08:06:50.722Z,7.10
2022-09-23T08:09:21.846Z,4.78
2022-09-23T08:11:49.509Z,4.80
2022-09-23T08:14:18.001Z,3.70
2022-09-23T08:16:47.192Z,7.65
2022-09-23T08:19:15.048Z,6.60
2022-09-23T08:21:42.459Z,4.25
2022-09-23T08:24:13.517Z,7.30
2022-09-23T08:26:40.245Z,6.53
2022-09-23T08:29:10.361Z,7.82
2022-09-23T08:31:37.008Z,5.85
2022-09-23T08:34:03.634Z,8.52
2022-09-23T08:36:31.318Z,6.05
2022-09-23T08:38:58.243Z,5.47
2022-09-23T08:41:38.896Z,8.20
2022-09-23T08:44:29.120Z,3.20
2022-09-23T08:47:16.555Z,4.53
2022-09-23T08:49:59.156Z,4.72
2022-09-23T08:52:47.752Z,6.28
2022-09-23T08:55:15.429Z,3.60
2022-09-23T08:58:24.005Z,6.63
2022-09-23T09:01:21.950Z,4.20
2022-09-23T09:04:00.957Z,4.25
2022-09-23T09:06:52.512Z,5.85
2022-09-23T09:09:23.751Z,37.80
2022-09-23T09:11:58.121Z,42.95
2022-09-23T09:14:57.287Z,8.38
2022-09-23T09:17:38.355Z,7.18
2022-09-23T09:20:38.123Z,3.80
2022-09-23T09:23:40.596Z,6.95
2022-09-23T09:26:15.705Z,7.32
2022-09-23T09:28:48.897Z,4.38
2022-09-23T09:31:37.986Z,3.22
2022-09-23T09:34:12.061Z,5.63
2022-09-23T09:36:48.312Z,5.72
2022-09-23T09:39:15.716Z,5.32
2022-09-23T09:41:47.443Z,5.00
2022-09-23T09:44:31.656Z,3.47
2022-09-23T09:47:23.977Z,4.82
2022-09-23T09:49:59.205Z,6.78
2022-09-23T09:52:29.561Z,6.05
2022-09-23T09:55:13.778Z,4.78
2022-09-23T09:57:44.100Z,6.88
2022-09-23T10:00:26.427Z,3.50
2022-09-23T10:03:14.722Z,3.20
2022-09-23T10:05:44.981Z,5.20
2022-09-23T10:09:02.086Z,3.97
2022-09-23T10:11:30.064Z,4.45
2022-09-23T10:14:02.428Z,4.32
2022-09-23T10:16:31.839Z,4.15
2022-09-23T10:19:00.806Z,7.15
2022-09-23T10:21:36.339Z,5.47
2022-09-23T10:24:06.608Z,4.05
2022-09-23T10:26:43.256Z,3.25
2022-09-23T10:29:31.347Z,4.55
2022-09-23T10:32:37.339Z,5.13
2022-09-23T10:35:10.655Z,6.68
2022-09-23T10:37:52.873Z,3.53
2022-09-23T10:44:13.086Z,5.88
2022-09-23T10:47:17.963Z,4.38
2022-09-23T10:49:58.802Z,4.88
2022-09-23T10:52:43.483Z,4.90
2022-09-23T10:55:09.982Z,4.30
2022-09-23T10:58:04.374Z,7.30
2022-09-23T11:00:43.214Z,4.10
2022-09-23T11:03:34.924Z,4.82
2022-09-23T11:06:13.657Z,5.60
2022-09-23T11:08:53.471Z,7.68
2022-09-23T11:11:29.803Z,3.28
2022-09-23T11:14:41.205Z,3.58
2022-09-23T11:17:14.969Z,7.32
2022-09-23T11:20:03.447Z,8.73
2022-09-23T11:22:57.367Z,4.90
2022-09-23T11:25:36.257Z,3.60
2022-09-23T11:28:17.809Z,5.60
2022-09-23T11:30:56.098Z,4.28
2022-09-23T11:33:28.778Z,6.40
2022-09-23T11:36:12.609Z,7.70
2022-09-23T11:38:45.840Z,9.82
2022-09-23T11:41:17.957Z,4.13
2022-09-23T11:43:53.676Z,6.90
2022-09-23T11:46:27.539Z,5.18
2022-09-23T11:49:05.018Z,3.55
2022-09-23T11:51:44.911Z,3.35
2022-09-23T11:54:22.809Z,7.20
2022-09-23T11:56:57.036Z,5.85
2022-09-23T11:59:38.424Z,3.47
2022-09-23T12:02:20.730Z,3.30
2022-09-23T12:05:12.863Z,5.53
2022-09-23T12:08:02.882Z,6.55
2022-09-23T12:10:51.711Z,4.85
2022-09-23T12:13:35.316Z,5.18
2022-09-23T12:16:25.989Z,6.15
2022-09-23T12:19:19.061Z,3.60
2022-09-23T12:22:00.835Z,10.75
2022-09-23T12:24:41.022Z,4.65
2022-09-23T12:27:12.192Z,5.28
2022-09-23T12:29:41.407Z,3.58
2022-09-23T12:32:16.804Z,3.75
2022-09-23T12:34:49.203Z,4.93
2022-09-23T12:37:43.341Z,3.95
2022-09-23T12:40:27.595Z,5.00
2022-09-23T12:42:54.686Z,3.10
2022-09-23T12:45:32.495Z,3.50
2022-09-23T12:48:01.050Z,5.85
2022-09-23T12:50:50.827Z,5.80
2022-09-23T12:53:35.806Z,2.97
2022-09-23T12:56:18.745Z,6.00
2022-09-23T12:58:48.332Z,4.07
2022-09-23T13:01:17.182Z,4.25
2022-09-23T13:04:11.510Z,4.40
2022-09-23T13:06:40.566Z,4.00
2022-09-23T13:09:22.592Z,6.10
2022-09-23T13:11:50.367Z,4.93
2022-09-23T13:14:26.778Z,4.22
2022-09-23T13:16:57.185Z,3.03
2022-09-23T13:19:27.023Z,10.05
2022-09-23T13:21:53.629Z,3.60
2022-09-23T13:24:22.953Z,4.82
2022-09-23T13:26:57.302Z,4.82
2022-09-23T13:29:28.038Z,4.50
2022-09-23T13:31:58.078Z,4.88
2022-09-23T13:34:30.549Z,3.97
2022-09-23T13:36:57.342Z,4.10
2022-09-23T13:39:26.511Z,4.45
2022-09-23T13:41:58.946Z,2.88
2022-09-23T13:44:25.575Z,4.93
2022-09-23T13:46:58.095Z,5.05
2022-09-23T13:49:34.051Z,3.33
2022-09-23T13:52:02.621Z,3.33
2022-09-23T13:54:48.809Z,6.57
2022-09-23T13:57:33.998Z,3.20
2022-09-23T14:00:02.317Z,5.95
2022-09-23T14:02:29.012Z,3.25
2022-09-23T14:04:58.978Z,4.82
2022-09-23T14:07:26.061Z,7.28
2022-09-23T14:09:55.731Z,3.45
2022-09-23T14:12:22.750Z,3.53
2022-09-23T14:14:52.798Z,4.35
2022-09-23T14:17:23.025Z,4.18
2022-09-23T14:19:50.470Z,6.57
2022-09-23T14:22:25.681Z,8.48
2022-09-23T14:24:53.965Z,3.63
2022-09-23T14:27:40.481Z,3.83
2022-09-23T14:30:19.086Z,5.55
2022-09-23T14:32:47.921Z,5.25
2022-09-23T14:35:42.794Z,3.72
2022-09-23T14:38:27.956Z,3.45
2022-09-23T14:41:15.772Z,3.75
2022-09-23T14:43:59.191Z,4.07
2022-09-23T14:46:28.975Z,3.55
2022-09-23T14:49:01.076Z,3.53
2022-09-23T14:52:00.526Z,6.18
2022-09-23T14:54:40.557Z,3.55
2022-09-23T14:57:25.419Z,5.15
2022-09-23T15:00:14.206Z,5.80
2022-09-23T15:02:45.561Z,5.82
2022-09-23T15:05:15.651Z,3.03
2022-09-23T15:07:46.387Z,4.97
2022-09-23T15:10:31.827Z,4.60
2022-09-23T15:13:17.040Z,3.20
2022-09-23T15:15:44.295Z,6.95
2022-09-23T15:18:22.785Z,4.20
2022-09-23T15:20:55.360Z,3.78
2022-09-23T15:23:43.223Z,3.75
2022-09-23T15:26:15.968Z,3.15
2022-09-23T15:28:43.844Z,4.55
2022-09-23T15:31:18.797Z,4.30
2022-09-23T15:33:47.764Z,5.57
2022-09-23T15:36:23.020Z,3.03
2022-09-23T15:38:49.786Z,6.00
2022-09-23T15:41:17.372Z,3.88
2022-09-23T15:43:44.623Z,3.08
2022-09-23T15:46:19.356Z,4.15
2022-09-23T15:49:08.991Z,4.13
2022-09-23T15:51:37.386Z,5.18
2022-09-23T15:54:05.991Z,3.13
2022-09-23T15:56:33.462Z,3.50
2022-09-23T15:59:00.915Z,4.03
2022-09-23T16:01:30.650Z,4.45
2022-09-23T16:03:57.590Z,4.85
2022-09-23T16:06:24.409Z,5.15
2022-09-23T16:08:52.255Z,3.10
2022-09-23T16:11:24.927Z,3.00
2022-09-23T16:13:51.867Z,3.78
2022-09-23T16:16:22.276Z,3.35
2022-09-23T16:18:51.307Z,4.25
2022-09-23T16:21:21.366Z,2.90
2022-09-23T16:23:49.977Z,3.15
2022-09-23T16:26:20.852Z,5.63
2022-09-23T16:28:50.510Z,5.25
2022-09-23T16:31:17.520Z,3.08
2022-09-23T16:33:45.232Z,4.32
2022-09-23T16:36:21.173Z,2.90
2022-09-23T16:38:48.201Z,2.83
2022-09-23T16:41:14.889Z,2.80
2022-09-23T16:43:41.996Z,5.28
2022-09-23T16:46:12.199Z,5.32
2022-09-23T16:48:44.988Z,4.72
2022-09-23T16:51:20.518Z,4.10
2022-09-23T16:53:51.480Z,3.00
2022-09-23T16:56:25.731Z,3.15
2022-09-23T16:58:54.887Z,3.10
2022-09-23T17:01:42.491Z,2.70
2022-09-23T17:04:10.737Z,6.70
2022-09-23T17:06:43.662Z,3.10
2022-09-23T17:09:11.538Z,3.75
2022-09-23T17:11:38.209Z,3.15
2022-09-23T17:14:05.851Z,3.15
2022-09-23T17:16:34.363Z,3.47
2022-09-23T17:19:07.174Z,3.83
2022-09-23T17:21:34.312Z,5.25
2022-09-23T17:24:01.420Z,4.95
2022-09-23T17:26:28.418Z,6.18
2022-09-23T17:28:57.368Z,4.35
2022-09-23T17:31:25.249Z,4.40
2022-09-23T17:33:52.722Z,4.28
2022-09-23T17:36:20.549Z,7.47
2022-09-23T17:38:48.461Z,4.30
2022-09-23T17:41:18.139Z,4.80
2022-09-23T17:43:46.786Z,7.78
2022-09-23T17:46:18.663Z,6.22
2022-09-23T17:48:45.578Z,6.20
2022-09-23T17:51:18.864Z,4.72
2022-09-23T17:53:47.843Z,5.18
2022-09-23T17:56:20.494Z,4.07
2022-09-23T17:58:48.880Z,4.40
2022-09-23T18:01:24.178Z,4.93
2022-09-23T18:03:55.130Z,5.63
2022-09-23T18:06:23.255Z,5.03
2022-09-23T18:08:50.969Z,6.50
2022-09-23T18:11:21.901Z,5.35
2022-09-23T18:13:53.537Z,5.43
2022-09-23T18:16:23.673Z,5.93
2022-09-23T18:18:55.430Z,9.40
2022-09-23T18:21:24.233Z,7.75
2022-09-23T18:23:51.147Z,8.18
2022-09-23T18:26:23.126Z,7.53
2022-09-23T18:28:52.863Z,9.05
2022-09-23T18:31:20.389Z,6.50
2022-09-23T18:33:51.560Z,9.25
2022-09-23T18:36:19.713Z,11.48
2022-09-23T18:38:47.024Z,11.77
2022-09-23T18:41:14.008Z,17.40
2022-09-23T18:43:45.110Z,9.95
2022-09-23T18:46:16.909Z,8.23
2022-09-23T18:49:03.310Z,8.63
2022-09-23T18:51:32.154Z,8.68
2022-09-23T18:54:00.780Z,6.75
2022-09-23T18:56:39.618Z,7.63
2022-09-23T18:59:07.395Z,6.18
2022-09-23T19:01:34.530Z,8.02
2022-09-23T19:04:04.597Z,6.47
2022-09-23T19:06:37.533Z,8.07
2022-09-23T19:09:06.024Z,7.95
2022-09-23T19:11:36.210Z,9.38
2022-09-23T19:14:05.993Z,11.25
2022-09-23T19:16:33.298Z,9.75
2022-09-23T19:19:00.663Z,6.22
2022-09-23T19:21:29.153Z,7.15
2022-09-23T19:23:59.094Z,8.45
2022-09-23T19:26:32.101Z,6.78
2022-09-23T19:29:00.556Z,6.30
2022-09-23T19:31:30.069Z,6.28
2022-09-23T19:34:13.930Z,6.53
2022-09-23T19:36:43.134Z,5.97
2022-09-23T19:39:18.557Z,9.00
2022-09-23T19:41:46.284Z,5.60
2022-09-23T19:44:13.155Z,12.18
2022-09-23T19:46:42.884Z,5.40
2022-09-23T19:49:11.090Z,6.93
2022-09-23T19:51:38.946Z,8.65
2022-09-23T19:54:07.395Z,6.15
2022-09-23T19:56:35.926Z,5.50
2022-09-23T19:59:05.945Z,8.07
2022-09-23T20:01:33.183Z,7.20
2022-09-23T20:04:00.313Z,10.73
2022-09-23T20:06:31.612Z,7.38
2022-09-23T20:09:01.051Z,6.25
2022-09-23T20:11:29.062Z,5.57
2022-09-23T20:14:01.810Z,8.05
2022-09-23T20:16:32.347Z,8.48
2022-09-23T20:19:00.244Z,10.93
2022-09-23T20:21:28.347Z,8.32
2022-09-23T20:23:55.561Z,6.13
2022-09-23T20:26:41.070Z,8.73
2022-09-23T20:29:08.955Z,10.75
2022-09-23T20:31:36.004Z,9.60
2022-09-23T20:34:05.772Z,7.10
2022-09-23T20:36:34.061Z,9.23
2022-09-23T20:39:05.386Z,8.32
2022-09-23T20:41:35.901Z,11.60
2022-09-23T20:44:02.968Z,7.20
2022-09-23T20:46:30.270Z,9.90
2022-09-23T20:48:57.077Z,7.32
2022-09-23T20:51:24.810Z,9.85
2022-09-23T20:53:53.046Z,12.38
2022-09-23T20:56:23.480Z,7.35
2022-09-23T20:58:52.566Z,9.07
2022-09-23T21:01:19.865Z,9.88
2022-09-23T21:03:48.606Z,14.18
2022-09-23T21:06:17.349Z,9.70
2022-09-23T21:08:44.721Z,9.35
2022-09-23T21:11:14.899Z,10.13
2022-09-23T21:13:46.824Z,9.30
2022-09-23T21:16:15.323Z,11.02
2022-09-23T21:18:42.014Z,10.35
2022-09-23T21:21:10.496Z,9.32
2022-09-23T21:23:39.090Z,10.90
2022-09-23T21:26:07.292Z,12.38
2022-09-23T21:28:36.234Z,9.45
2022-09-23T21:31:05.981Z,11.32
2022-09-23T21:33:33.079Z,10.32
2022-09-23T21:36:03.522Z,10.15
2022-09-23T21:38:37.212Z,10.98
2022-09-23T21:41:06.936Z,11.20
2022-09-23T21:43:36.006Z,13.38
2022-09-23T21:46:08.020Z,11.38
2022-09-23T21:48:37.618Z,9.98
2022-09-23T21:51:07.280Z,11.80
2022-09-23T21:53:36.406Z,13.00
2022-09-23T21:56:08.625Z,10.43
2022-09-23T21:58:37.379Z,10.63
2022-09-23T22:01:15.653Z,13.93
2022-09-23T22:03:43.518Z,12.02
2022-09-23T22:06:11.865Z,11.35
2022-09-23T22:08:40.947Z,11.80
2022-09-23T22:11:33.502Z,10.85
2022-09-23T22:14:02.157Z,11.60
2022-09-23T22:16:29.426Z,10.95
2022-09-23T22:18:58.292Z,13.00
2022-09-23T22:21:26.720Z,14.32
2022-09-23T22:23:58.474Z,12.18
2022-09-23T22:26:25.457Z,12.55
2022-09-23T22:29:10.640Z,15.52
2022-09-23T22:31:55.989Z,13.10
2022-09-23T22:34:49.193Z,14.77
2022-09-23T22:37:25.586Z,12.02
2022-09-23T22:39:52.925Z,13.15
2022-09-23T22:42:22.448Z,13.25
2022-09-23T22:44:50.238Z,11.82
2022-09-23T22:47:20.143Z,13.95
2022-09-23T22:49:47.535Z,12.45
2022-09-23T22:52:16.168Z,16.20
2022-09-23T22:54:43.066Z,16.35
2022-09-23T22:57:10.527Z,15.35
2022-09-23T22:59:37.530Z,18.02
2022-09-23T23:02:06.659Z,14.93
2022-09-23T23:04:33.564Z,16.23
2022-09-23T23:07:00.180Z,17.52
2022-09-23T23:09:26.689Z,18.55
2022-09-23T23:11:53.261Z,18.95
2022-09-23T23:14:20.015Z,17.50
2022-09-23T23:16:47.027Z,19.73
2022-09-23T23:19:17.168Z,17.65
2022-09-23T23:21:45.257Z,16.23
2022-09-23T23:24:20.582Z,16.63
2022-09-23T23:26:47.445Z,15.20
2022-09-23T23:29:15.944Z,17.77
2022-09-23T23:31:42.918Z,14.25
2022-09-23T23:34:20.976Z,16.48
2022-09-23T23:36:54.699Z,15.73
2022-09-23T23:39:23.773Z,19.58
2022-09-23T23:41:57.023Z,14.23
2022-09-23T23:44:25.515Z,12.50
2022-09-23T23:46:52.588Z,14.00
2022-09-23T23:49:19.548Z,18.17
2022-09-23T23:51:46.474Z,14.23
2022-09-23T23:54:13.040Z,15.48
2022-09-23T23:56:39.696Z,14.27
2022-09-23T23:59:06.432Z,14.88
